Laila — CQDP — position and weather

sailwx.info

Track history (hours):
 
Tides and Currents Weather Stations Pressure Air Temp Water Temp Dewpoint Dewpoint Depression Visibility Wind Speed Wind Dir Waves Ship Positions

Laila

Last reported at 2018-Aug-01 22:03 UTC. Time now 2018-Aug-21 03:56 UTC.
Position N 23°07' E 117°15'.
Warning: this ship's position is 19 days out of date.

Length 216 m; draft 8.9 m.

Type: Ship. MMSI: 255805792.

Date/timePositionNaut miles runAvg speedWind from/ knotsBaromVisibWave heightAir tempDewpointWater temp
2018-Aug-01 22:03N 23°07' E 117°15'116.8
2018-Aug-01 22:00N 23°08' E 117°16'816.4
2018-Aug-01 21:30N 23°13' E 117°23'816.2
2018-Aug-01 21:00N 23°18' E 117°29'816.4
2018-Aug-01 20:31N 23°24' E 117°36'816.5
2018-Aug-01 20:01N 23°29' E 117°42'815.9
2018-Aug-01 19:30N 23°35' E 117°48'815.8
2018-Aug-01 19:00N 23°41' E 117°54'815.5
2018-Aug-01 18:30N 23°46' E 118°00'815.9
2018-Aug-01 18:00N 23°52' E 118°06'815.5
2018-Aug-01 17:31N 23°58' E 118°11'815.8
2018-Aug-01 17:00N 24°04' E 118°17'815.2
2018-Aug-01 16:30N 24°12' E 118°18'815.5
2018-Aug-01 16:00N 24°18' E 118°13'612.7
2018-Aug-01 15:30N 24°22' E 118°08'510.7
2018-Aug-01 15:00N 24°26' E 118°03'5 4.8
2018-Aug-01 13:59N 24°31' E 118°05'0 0.0
2018-Aug-01 13:29N 24°31' E 118°05'0 0.0
2018-Aug-01 12:59N 24°31' E 118°05'0 0.0
2018-Aug-01 12:29N 24°31' E 118°05'0 0.0
2018-Aug-01 11:56N 24°31' E 118°05'0 0.0
2018-Aug-01 11:29N 24°31' E 118°05'0 0.0
2018-Aug-01 10:59N 24°31' E 118°05'0 0.0
2018-Aug-01 10:29N 24°31' E 118°05'0 0.0
2018-Aug-01 09:59N 24°31' E 118°05'0 0.0
2018-Aug-01 09:29N 24°31' E 118°05'0 0.0
2018-Aug-01 08:59N 24°31' E 118°05'0 0.0
2018-Aug-01 08:26N 24°31' E 118°05'0 0.0
2018-Aug-01 07:59N 24°31' E 118°05'0 0.0
2018-Aug-01 07:29N 24°31' E 118°05'0 0.0
2018-Aug-01 06:59N 24°31' E 118°05'0 0.0
2018-Aug-01 06:29N 24°31' E 118°05'0 0.0
2018-Aug-01 05:59N 24°31' E 118°05'0 0.0
2018-Aug-01 05:29N 24°31' E 118°05'0 0.0
2018-Aug-01 04:59N 24°31' E 118°05'0 0.0
2018-Aug-01 04:29N 24°31' E 118°05'0 0.0
2018-Aug-01 03:59N 24°31' E 118°05'0 0.0
2018-Aug-01 03:29N 24°31' E 118°05'0 0.0
2018-Aug-01 02:59N 24°31' E 118°05'0 0.0
2018-Aug-01 02:29N 24°31' E 118°05'0 0.0
2018-Aug-01 01:59N 24°31' E 118°05'0 0.0
2018-Aug-01 01:29N 24°31' E 118°05'0 0.0
2018-Aug-01 00:59N 24°31' E 118°05'3 1.1
2018-Jul-31 22:30N 24°28' E 118°03'510.1
2018-Jul-31 22:00N 24°24' E 118°06'5 9.1
2018-Jul-31 21:30N 24°21' E 118°10'4 7.8
2018-Jul-31 21:00N 24°18' E 118°13'510.1
2018-Jul-31 20:30N 24°14' E 118°16'5 9.7
2018-Jul-31 20:00N 24°10' E 118°20'5 9.5
2018-Jul-31 19:30N 24°13' E 118°24'714.9
2018-Jul-31 19:00N 24°16' E 118°32'816.6
2018-Jul-31 18:30N 24°18' E 118°40'1416.5
2018-Jul-31 17:39N 24°22' E 118°55'216.2
2018-Jul-31 17:30N 24°23' E 118°58'916.1
2018-Jul-31 16:59N 24°28' E 119°05'1016.1
2018-Jul-31 16:21N 24°35' E 119°13'43314.7
2018-Jul-30 10:53N 31°03' E 122°52'1015.4
2018-Jul-30 10:15N 31°05' E 122°41'416.9
2018-Jul-30 10:00N 31°05' E 122°36'712.7
2018-Jul-30 09:28N 31°06' E 122°28'612.1
2018-Jul-30 09:00N 31°06' E 122°22'714.5
2018-Jul-30 08:30N 31°09' E 122°14'815.0
2018-Jul-30 07:57N 31°13' E 122°06'715.1
2018-Jul-30 07:30N 31°15' E 121°58'814.8
2018-Jul-30 06:56N 31°17' E 121°49'5 0.3
2018-Jul-29 15:28N 31°16' E 121°54'2110.3
2018-Jul-29 13:29N 31°07' E 122°16'1511.4
2018-Jul-29 12:10N 31°07' E 122°34'2 9.2
2018-Jul-29 11:58N 31°07' E 122°36'710.4
2018-Jul-29 11:15N 31°06' E 122°45'  
Track history (hours):
 
Tides and Currents Weather Stations Pressure Air Temp Water Temp Dewpoint Dewpoint Depression Visibility Wind Speed Wind Dir Waves Ship Positions

Laila

Last reported at 2018-Aug-01 22:03 UTC. Time now 2018-Aug-21 03:56 UTC.
Position N 23°07' E 117°15'.
Warning: this ship's position is 19 days out of date.

Length 216 m; draft 8.9 m.

Type: Ship. MMSI: 255805792.

Date/timePositionNaut miles runAvg speedWind from/ knotsBaromVisibWave heightAir tempDewpointWater temp
2018-Aug-01 22:03N 23°07' E 117°15'116.8
2018-Aug-01 22:00N 23°08' E 117°16'816.4
2018-Aug-01 21:30N 23°13' E 117°23'816.2
2018-Aug-01 21:00N 23°18' E 117°29'816.4
2018-Aug-01 20:31N 23°24' E 117°36'816.5
2018-Aug-01 20:01N 23°29' E 117°42'815.9
2018-Aug-01 19:30N 23°35' E 117°48'815.8
2018-Aug-01 19:00N 23°41' E 117°54'815.5
2018-Aug-01 18:30N 23°46' E 118°00'815.9
2018-Aug-01 18:00N 23°52' E 118°06'815.5
2018-Aug-01 17:31N 23°58' E 118°11'815.8
2018-Aug-01 17:00N 24°04' E 118°17'815.2
2018-Aug-01 16:30N 24°12' E 118°18'815.5
2018-Aug-01 16:00N 24°18' E 118°13'612.7
2018-Aug-01 15:30N 24°22' E 118°08'510.7
2018-Aug-01 15:00N 24°26' E 118°03'5 4.8
2018-Aug-01 13:59N 24°31' E 118°05'0 0.0
2018-Aug-01 13:29N 24°31' E 118°05'0 0.0
2018-Aug-01 12:59N 24°31' E 118°05'0 0.0
2018-Aug-01 12:29N 24°31' E 118°05'0 0.0
2018-Aug-01 11:56N 24°31' E 118°05'0 0.0
2018-Aug-01 11:29N 24°31' E 118°05'0 0.0
2018-Aug-01 10:59N 24°31' E 118°05'0 0.0
2018-Aug-01 10:29N 24°31' E 118°05'0 0.0
2018-Aug-01 09:59N 24°31' E 118°05'0 0.0
2018-Aug-01 09:29N 24°31' E 118°05'0 0.0
2018-Aug-01 08:59N 24°31' E 118°05'0 0.0
2018-Aug-01 08:26N 24°31' E 118°05'0 0.0
2018-Aug-01 07:59N 24°31' E 118°05'0 0.0
2018-Aug-01 07:29N 24°31' E 118°05'0 0.0
2018-Aug-01 06:59N 24°31' E 118°05'0 0.0
2018-Aug-01 06:29N 24°31' E 118°05'0 0.0
2018-Aug-01 05:59N 24°31' E 118°05'0 0.0
2018-Aug-01 05:29N 24°31' E 118°05'0 0.0
2018-Aug-01 04:59N 24°31' E 118°05'0 0.0
2018-Aug-01 04:29N 24°31' E 118°05'0 0.0
2018-Aug-01 03:59N 24°31' E 118°05'0 0.0
2018-Aug-01 03:29N 24°31' E 118°05'0 0.0
2018-Aug-01 02:59N 24°31' E 118°05'0 0.0
2018-Aug-01 02:29N 24°31' E 118°05'0 0.0
2018-Aug-01 01:59N 24°31' E 118°05'0 0.0
2018-Aug-01 01:29N 24°31' E 118°05'0 0.0
2018-Aug-01 00:59N 24°31' E 118°05'3 1.1
2018-Jul-31 22:30N 24°28' E 118°03'510.1
2018-Jul-31 22:00N 24°24' E 118°06'5 9.1
2018-Jul-31 21:30N 24°21' E 118°10'4 7.8
2018-Jul-31 21:00N 24°18' E 118°13'510.1
2018-Jul-31 20:30N 24°14' E 118°16'5 9.7
2018-Jul-31 20:00N 24°10' E 118°20'5 9.5
2018-Jul-31 19:30N 24°13' E 118°24'714.9
2018-Jul-31 19:00N 24°16' E 118°32'816.6
2018-Jul-31 18:30N 24°18' E 118°40'1416.5
2018-Jul-31 17:39N 24°22' E 118°55'216.2
2018-Jul-31 17:30N 24°23' E 118°58'916.1
2018-Jul-31 16:59N 24°28' E 119°05'1016.1
2018-Jul-31 16:21N 24°35' E 119°13'43314.7
2018-Jul-30 10:53N 31°03' E 122°52'1015.4
2018-Jul-30 10:15N 31°05' E 122°41'416.9
2018-Jul-30 10:00N 31°05' E 122°36'712.7
2018-Jul-30 09:28N 31°06' E 122°28'612.1
2018-Jul-30 09:00N 31°06' E 122°22'714.5
2018-Jul-30 08:30N 31°09' E 122°14'815.0
2018-Jul-30 07:57N 31°13' E 122°06'715.1
2018-Jul-30 07:30N 31°15' E 121°58'814.8
2018-Jul-30 06:56N 31°17' E 121°49'5 0.3
2018-Jul-29 15:28N 31°16' E 121°54'2110.3
2018-Jul-29 13:29N 31°07' E 122°16'1511.4
2018-Jul-29 12:10N 31°07' E 122°34'2 9.2
2018-Jul-29 11:58N 31°07' E 122°36'710.4
2018-Jul-29 11:15N 31°06' E 122°45'  

Dump ship's entire track history